createdAt,value
2023-03-06T00:00:02.946Z,969.26
2023-03-06T00:01:03.973Z,969.32
2023-03-06T00:02:03.892Z,969.26
2023-03-06T00:03:02.962Z,969.29
2023-03-06T00:04:03.697Z,969.32
2023-03-06T00:05:03.637Z,969.18
2023-03-06T00:06:03.618Z,969.04
2023-03-06T00:07:03.549Z,969.12
2023-03-06T00:08:03.491Z,969.12
2023-03-06T00:09:03.511Z,969.09
2023-03-06T00:10:03.697Z,969.09
2023-03-06T00:11:03.679Z,969.10
2023-03-06T00:12:03.609Z,969.12
2023-03-06T00:13:03.566Z,969.10
2023-03-06T00:14:03.546Z,969.18
2023-03-06T00:15:05.940Z,969.07
2023-03-06T00:16:03.942Z,969.18
2023-03-06T00:17:03.727Z,969.15
2023-03-06T00:18:03.752Z,969.10
2023-03-06T00:19:03.672Z,969.23
2023-03-06T00:20:03.668Z,969.12
2023-03-06T00:21:03.628Z,968.98
2023-03-06T00:22:03.668Z,969.07
2023-03-06T00:23:03.701Z,969.15
2023-03-06T00:24:03.749Z,969.04
2023-03-06T00:25:03.826Z,968.99
2023-03-06T00:26:03.924Z,968.96
2023-03-06T00:27:03.894Z,969.04
2023-03-06T00:28:03.834Z,968.88
2023-03-06T00:29:03.021Z,968.96
2023-03-06T00:30:02.977Z,968.96
2023-03-06T00:31:02.937Z,968.88
2023-03-06T00:32:03.021Z,968.91
2023-03-06T00:33:03.016Z,968.96
2023-03-06T00:34:03.068Z,968.99
2023-03-06T00:35:03.065Z,969.05
2023-03-06T00:36:03.061Z,969.07
2023-03-06T00:37:03.402Z,968.96
2023-03-06T00:38:03.410Z,969.05
2023-03-06T00:39:03.351Z,968.96
2023-03-06T00:40:03.294Z,968.83
2023-03-06T00:41:03.364Z,968.80
2023-03-06T00:42:03.357Z,968.86
2023-03-06T00:43:03.409Z,968.94
2023-03-06T00:44:03.444Z,968.91
2023-03-06T00:45:03.421Z,968.83
2023-03-06T00:46:03.669Z,968.83
2023-03-06T00:47:03.600Z,968.83
2023-03-06T00:48:03.519Z,968.83
2023-03-06T00:49:03.606Z,968.72
2023-03-06T00:50:03.788Z,968.72
2023-03-06T00:51:03.646Z,968.86
2023-03-06T00:52:03.625Z,968.94
2023-03-06T00:53:03.737Z,968.80
2023-03-06T00:54:03.641Z,968.83
2023-03-06T00:55:03.645Z,968.72
2023-03-06T00:56:03.656Z,968.56
2023-03-06T00:57:03.777Z,968.78
2023-03-06T00:58:03.648Z,968.65
2023-03-06T00:59:03.690Z,968.72
2023-03-06T01:00:03.610Z,968.78
2023-03-06T01:01:03.658Z,968.65
2023-03-06T01:02:03.621Z,968.65
2023-03-06T01:03:03.566Z,968.75
2023-03-06T01:04:03.636Z,968.57
2023-03-06T01:05:03.558Z,968.68
2023-03-06T01:06:03.627Z,968.59
2023-03-06T01:07:03.653Z,968.57
2023-03-06T01:08:03.605Z,968.62
2023-03-06T01:09:03.600Z,968.73
2023-03-06T01:10:03.661Z,968.65
2023-03-06T01:11:03.758Z,968.60
2023-03-06T01:12:03.825Z,968.57
2023-03-06T01:13:03.871Z,968.63
2023-03-06T01:14:03.751Z,968.54
2023-03-06T01:15:03.848Z,968.54
2023-03-06T01:16:03.286Z,968.60
2023-03-06T01:17:03.297Z,968.38
2023-03-06T01:18:03.326Z,968.52
2023-03-06T01:19:03.409Z,968.52
2023-03-06T01:20:03.409Z,968.30
2023-03-06T01:21:03.302Z,968.47
2023-03-06T01:22:03.348Z,968.36
2023-03-06T01:23:03.459Z,968.44
2023-03-06T01:24:03.472Z,968.50
2023-03-06T01:25:03.375Z,968.39
2023-03-06T01:26:03.380Z,968.14
2023-03-06T01:27:03.317Z,968.19
2023-03-06T01:28:03.402Z,968.25
2023-03-06T01:29:03.393Z,968.20
2023-03-06T01:30:03.341Z,968.22
2023-03-06T01:31:03.440Z,968.22
2023-03-06T01:32:03.797Z,968.42
2023-03-06T01:33:03.539Z,968.39
2023-03-06T01:34:03.648Z,968.34
2023-03-06T01:35:03.648Z,968.17
2023-03-06T01:36:03.537Z,968.28
2023-03-06T01:37:03.545Z,968.26
2023-03-06T01:38:03.587Z,968.17
2023-03-06T01:39:03.467Z,968.17
2023-03-06T01:40:03.498Z,968.26
2023-03-06T01:41:03.472Z,968.12
2023-03-06T01:42:03.598Z,968.15
2023-03-06T01:43:03.496Z,968.15
2023-03-06T01:44:03.506Z,968.15
2023-03-06T01:45:03.512Z,968.18
2023-03-06T01:46:03.496Z,968.15
2023-03-06T01:47:03.523Z,968.10
2023-03-06T01:48:03.609Z,968.02
2023-03-06T01:49:03.488Z,968.04
2023-03-06T01:50:03.409Z,968.21
2023-03-06T01:51:03.410Z,968.02
2023-03-06T01:52:03.442Z,968.02
2023-03-06T01:53:03.495Z,968.05
2023-03-06T01:54:03.483Z,968.10
2023-03-06T01:55:03.553Z,968.19
2023-03-06T01:56:03.583Z,968.24
2023-03-06T01:57:03.595Z,968.11
2023-03-06T01:58:03.612Z,968.08
2023-03-06T01:59:03.635Z,968.00
2023-03-06T02:00:03.565Z,968.02
2023-03-06T02:01:03.580Z,968.03
2023-03-06T02:02:03.702Z,968.00
2023-03-06T02:03:03.658Z,968.00
2023-03-06T02:04:03.648Z,968.03
2023-03-06T02:05:03.650Z,967.83
2023-03-06T02:06:03.550Z,967.94
2023-03-06T02:07:03.470Z,968.00
2023-03-06T02:08:03.613Z,967.94
2023-03-06T02:09:03.718Z,967.92
2023-03-06T02:10:03.782Z,967.84
2023-03-06T02:11:03.796Z,967.86
2023-03-06T02:12:03.772Z,967.73
2023-03-06T02:13:03.755Z,967.84
2023-03-06T02:14:03.858Z,967.84
2023-03-06T02:15:03.841Z,967.76
2023-03-06T02:16:03.851Z,967.98
2023-03-06T02:17:03.934Z,967.73
2023-03-06T02:18:03.052Z,967.84
2023-03-06T02:19:03.042Z,967.73
2023-03-06T02:20:03.126Z,967.79
2023-03-06T02:21:03.120Z,967.79
2023-03-06T02:22:02.967Z,967.65
2023-03-06T02:23:03.613Z,967.71
2023-03-06T02:24:03.612Z,967.76
2023-03-06T02:25:03.683Z,967.68
2023-03-06T02:26:03.672Z,967.76
2023-03-06T02:27:03.732Z,967.73
2023-03-06T02:28:03.749Z,967.79
2023-03-06T02:29:03.849Z,967.68
2023-03-06T02:30:03.736Z,967.76
2023-03-06T02:31:03.930Z,967.74
2023-03-06T02:32:04.010Z,967.71
2023-03-06T02:33:03.935Z,967.79
2023-03-06T02:34:03.868Z,967.71
2023-03-06T02:35:03.854Z,967.68
2023-03-06T02:36:03.120Z,967.57
2023-03-06T02:37:02.950Z,967.52
2023-03-06T02:38:02.971Z,967.74
2023-03-06T02:39:03.403Z,967.68
2023-03-06T02:40:03.463Z,967.65
2023-03-06T02:41:03.445Z,967.52
2023-03-06T02:42:03.566Z,967.52
2023-03-06T02:43:03.525Z,967.52
2023-03-06T02:44:03.473Z,967.65
2023-03-06T02:45:03.505Z,967.60
2023-03-06T02:46:03.716Z,967.60
2023-03-06T02:47:03.568Z,967.54
2023-03-06T02:48:03.537Z,967.35
2023-03-06T02:49:03.626Z,967.43
2023-03-06T02:50:03.720Z,967.45
2023-03-06T02:51:03.557Z,967.48
2023-03-06T02:52:03.573Z,967.27
2023-03-06T02:53:03.682Z,967.18
2023-03-06T02:54:03.808Z,967.43
2023-03-06T02:55:03.735Z,967.45
2023-03-06T02:56:03.757Z,967.42
2023-03-06T02:57:03.816Z,967.42
2023-03-06T02:58:03.818Z,967.29
2023-03-06T02:59:03.822Z,967.32
2023-03-06T03:00:03.733Z,967.53
2023-03-06T03:01:03.767Z,967.31
2023-03-06T03:02:03.946Z,967.04
2023-03-06T03:03:02.977Z,967.29
2023-03-06T03:04:03.871Z,967.26
2023-03-06T03:05:03.057Z,967.42
2023-03-06T03:06:03.026Z,967.15
2023-03-06T03:07:03.039Z,967.34
2023-03-06T03:08:03.045Z,967.12
2023-03-06T03:09:03.202Z,967.14
2023-03-06T03:10:03.106Z,967.12
2023-03-06T03:11:03.008Z,967.23
2023-03-06T03:12:03.115Z,967.14
2023-03-06T03:13:03.183Z,967.17
2023-03-06T03:14:03.216Z,967.41
2023-03-06T03:15:03.331Z,967.22
2023-03-06T03:16:03.356Z,967.22
2023-03-06T03:17:03.398Z,967.17
2023-03-06T03:18:03.410Z,967.08
2023-03-06T03:19:03.326Z,967.22
2023-03-06T03:20:03.452Z,967.11
2023-03-06T03:21:03.431Z,967.19
2023-03-06T03:22:03.423Z,967.01
2023-03-06T03:23:03.389Z,967.05
2023-03-06T03:24:03.377Z,967.08
2023-03-06T03:25:03.440Z,967.01
2023-03-06T03:26:03.421Z,967.05
2023-03-06T03:27:03.347Z,966.95
2023-03-06T03:28:03.354Z,966.89
2023-03-06T03:29:03.312Z,966.89
2023-03-06T03:30:03.330Z,966.97
2023-03-06T03:31:03.427Z,966.92
2023-03-06T03:32:03.368Z,966.92
2023-03-06T03:33:03.414Z,966.78
2023-03-06T03:34:03.303Z,966.92
2023-03-06T03:35:03.286Z,966.80
2023-03-06T03:36:03.396Z,966.69
2023-03-06T03:37:03.335Z,966.69
2023-03-06T03:38:03.332Z,966.75
2023-03-06T03:39:03.316Z,966.52
2023-03-06T03:40:03.416Z,966.69
2023-03-06T03:41:03.402Z,966.66
2023-03-06T03:42:03.426Z,966.75
2023-03-06T03:43:03.404Z,966.66
2023-03-06T03:44:03.389Z,966.80
2023-03-06T03:45:03.415Z,966.66
2023-03-06T03:46:03.614Z,966.66
2023-03-06T03:47:03.445Z,966.69
2023-03-06T03:48:03.363Z,966.77
2023-03-06T03:49:03.402Z,966.91
2023-03-06T03:50:03.503Z,966.69
2023-03-06T03:51:03.547Z,966.80
2023-03-06T03:52:03.580Z,966.72
2023-03-06T03:53:03.805Z,966.75
2023-03-06T03:54:03.639Z,966.80
2023-03-06T03:55:03.645Z,966.80
2023-03-06T03:56:03.601Z,966.75
2023-03-06T03:57:03.649Z,966.66
2023-03-06T03:58:03.678Z,966.64
2023-03-06T03:59:03.789Z,966.64
2023-03-06T04:00:03.775Z,966.69
2023-03-06T04:01:03.806Z,966.64
2023-03-06T04:02:03.947Z,966.72
2023-03-06T04:03:03.857Z,966.55
2023-03-06T04:04:03.899Z,966.58
2023-03-06T04:05:03.168Z,966.70
2023-03-06T04:06:02.980Z,966.75
2023-03-06T04:07:03.923Z,966.61
2023-03-06T04:08:02.936Z,966.64
2023-03-06T04:09:02.908Z,966.59
2023-03-06T04:10:02.995Z,966.56
2023-03-06T04:11:02.957Z,966.56
2023-03-06T04:12:03.961Z,966.50
2023-03-06T04:13:03.817Z,966.59
2023-03-06T04:14:03.863Z,966.53
2023-03-06T04:15:03.930Z,966.42
2023-03-06T04:16:04.077Z,966.50
2023-03-06T04:17:02.948Z,966.45
2023-03-06T04:18:03.012Z,966.59
2023-03-06T04:19:02.976Z,966.48
2023-03-06T04:20:03.176Z,966.34
2023-03-06T04:21:03.012Z,966.28
2023-03-06T04:22:03.019Z,966.48
2023-03-06T04:23:03.006Z,966.45
2023-03-06T04:24:03.100Z,966.37
2023-03-06T04:25:03.118Z,966.42
2023-03-06T04:26:03.207Z,966.25
2023-03-06T04:27:03.214Z,966.34
2023-03-06T04:28:03.176Z,966.31
2023-03-06T04:29:03.674Z,966.25
2023-03-06T04:30:03.750Z,966.34
2023-03-06T04:31:03.820Z,966.28
2023-03-06T04:32:04.006Z,966.14
2023-03-06T04:33:03.866Z,966.17
2023-03-06T04:34:03.808Z,966.31
2023-03-06T04:35:03.836Z,966.22
2023-03-06T04:36:03.845Z,966.33
2023-03-06T04:37:02.993Z,966.31
2023-03-06T04:38:03.093Z,966.31
2023-03-06T04:39:03.385Z,966.11
2023-03-06T04:40:03.330Z,966.22
2023-03-06T04:41:03.293Z,966.33
2023-03-06T04:42:03.344Z,966.25
2023-03-06T04:43:03.245Z,966.16
2023-03-06T04:44:03.229Z,966.22
2023-03-06T04:45:03.314Z,966.14
2023-03-06T04:46:03.540Z,966.16
2023-03-06T04:47:03.481Z,966.30
2023-03-06T04:48:03.531Z,966.19
2023-03-06T04:49:03.600Z,966.30
2023-03-06T04:50:03.391Z,966.13
2023-03-06T04:51:03.274Z,966.05
2023-03-06T04:52:03.349Z,966.22
2023-03-06T04:53:03.341Z,966.08
2023-03-06T04:54:03.219Z,966.16
2023-03-06T04:55:03.328Z,966.08
2023-03-06T04:56:03.255Z,966.05
2023-03-06T04:57:03.467Z,966.13
2023-03-06T04:58:03.592Z,966.10
2023-03-06T04:59:03.361Z,966.19
2023-03-06T05:00:03.381Z,966.08
2023-03-06T05:01:03.596Z,965.99
2023-03-06T05:02:03.514Z,966.07
2023-03-06T05:03:03.556Z,966.02
2023-03-06T05:04:03.515Z,966.16
2023-03-06T05:05:03.553Z,966.10
2023-03-06T05:06:03.545Z,966.05
2023-03-06T05:07:03.629Z,965.96
2023-03-06T05:08:03.744Z,965.99
2023-03-06T05:09:03.770Z,965.88
2023-03-06T05:10:03.779Z,965.88
2023-03-06T05:11:03.732Z,965.88
2023-03-06T05:12:03.888Z,965.90
2023-03-06T05:13:03.910Z,965.85
2023-03-06T05:14:03.923Z,965.91
2023-03-06T05:15:03.859Z,965.88
2023-03-06T05:16:04.015Z,965.74
2023-03-06T05:17:03.930Z,965.68
2023-03-06T05:18:03.958Z,965.85
2023-03-06T05:19:02.948Z,965.82
2023-03-06T05:20:03.026Z,965.76
2023-03-06T05:21:03.031Z,965.87
2023-03-06T05:22:02.932Z,965.79
2023-03-06T05:23:02.969Z,965.62
2023-03-06T05:24:03.873Z,965.82
2023-03-06T05:25:03.223Z,965.60
2023-03-06T05:26:03.294Z,965.62
2023-03-06T05:27:03.348Z,965.76
2023-03-06T05:28:03.394Z,965.67
2023-03-06T05:29:03.442Z,965.76
2023-03-06T05:30:03.903Z,965.65
2023-03-06T05:31:03.845Z,965.70
2023-03-06T05:32:03.190Z,965.60
2023-03-06T05:33:03.049Z,965.60
2023-03-06T05:34:02.979Z,965.57
2023-03-06T05:35:03.066Z,965.62
2023-03-06T05:36:03.067Z,965.57
2023-03-06T05:37:03.148Z,965.54
2023-03-06T05:38:03.253Z,965.49
2023-03-06T05:39:03.246Z,965.54
2023-03-06T05:40:03.261Z,965.48
2023-03-06T05:41:03.338Z,965.54
2023-03-06T05:42:03.351Z,965.57
2023-03-06T05:43:03.308Z,965.61
2023-03-06T05:44:03.361Z,965.64
2023-03-06T05:45:03.352Z,965.51
2023-03-06T05:46:03.694Z,965.66
2023-03-06T05:47:03.433Z,965.61
2023-03-06T05:48:03.474Z,965.61
2023-03-06T05:49:03.449Z,965.66
2023-03-06T05:50:03.459Z,965.51
2023-03-06T05:51:03.618Z,965.63
2023-03-06T05:52:03.534Z,965.69
2023-03-06T05:53:03.523Z,965.50
2023-03-06T05:54:03.582Z,965.74
2023-03-06T05:55:03.552Z,965.60
2023-03-06T05:56:03.626Z,965.66
2023-03-06T05:57:03.571Z,965.63
2023-03-06T05:58:03.566Z,965.63
2023-03-06T05:59:03.658Z,965.58
2023-03-06T06:00:03.812Z,965.58
2023-03-06T06:01:03.876Z,965.60
2023-03-06T06:02:04.015Z,965.66
2023-03-06T06:03:02.916Z,965.68
2023-03-06T06:04:02.994Z,965.66
2023-03-06T06:05:03.047Z,965.63
2023-03-06T06:06:03.952Z,965.63
2023-03-06T06:07:03.877Z,965.74
2023-03-06T06:08:02.986Z,965.60
2023-03-06T06:09:03.003Z,965.58
2023-03-06T06:10:04.387Z,965.74
2023-03-06T06:11:03.972Z,965.77
2023-03-06T06:12:02.958Z,965.76
2023-03-06T06:13:03.965Z,965.71
2023-03-06T06:14:03.078Z,965.65
2023-03-06T06:15:03.132Z,965.60
2023-03-06T06:16:03.224Z,965.65
2023-03-06T06:17:03.210Z,965.58
2023-03-06T06:18:03.130Z,965.63
2023-03-06T06:19:03.141Z,965.71
2023-03-06T06:20:03.161Z,965.65
2023-03-06T06:21:03.107Z,965.65
2023-03-06T06:22:03.178Z,965.58
2023-03-06T06:23:03.194Z,965.58
2023-03-06T06:24:03.128Z,965.71
2023-03-06T06:25:03.262Z,965.62
2023-03-06T06:26:03.220Z,965.55
2023-03-06T06:27:04.390Z,965.55
2023-03-06T06:28:03.224Z,965.55
2023-03-06T06:29:03.306Z,965.60
2023-03-06T06:30:03.260Z,965.62
2023-03-06T06:31:03.238Z,965.49
2023-03-06T06:32:03.271Z,965.57
2023-03-06T06:33:03.110Z,965.65
2023-03-06T06:34:03.137Z,965.57
2023-03-06T06:35:03.039Z,965.54
2023-03-06T06:36:03.110Z,965.64
2023-03-06T06:37:03.258Z,965.54
2023-03-06T06:38:03.241Z,965.51
2023-03-06T06:39:03.361Z,965.51
2023-03-06T06:40:03.280Z,965.45
2023-03-06T06:41:50.972Z,965.43
2023-03-06T06:42:34.269Z,965.53
2023-03-06T06:43:03.657Z,965.60
2023-03-06T06:44:03.683Z,965.42
2023-03-06T06:45:03.671Z,965.44
2023-03-06T06:46:59.162Z,965.36
2023-03-06T06:47:25.259Z,965.47
2023-03-06T06:48:03.877Z,965.41
2023-03-06T06:49:03.695Z,965.58
2023-03-06T06:50:03.844Z,965.49
2023-03-06T06:51:03.815Z,965.32
2023-03-06T06:52:03.771Z,965.51
2023-03-06T06:53:03.754Z,965.43
2023-03-06T06:54:03.731Z,965.48
2023-03-06T06:55:03.838Z,965.48
2023-03-06T06:56:03.760Z,965.48
2023-03-06T06:57:03.757Z,965.42
2023-03-06T06:58:03.920Z,965.31
2023-03-06T06:59:17.567Z,965.50
2023-03-06T07:00:04.036Z,965.47
2023-03-06T07:01:03.917Z,965.47
2023-03-06T07:02:03.905Z,965.47
2023-03-06T07:03:03.893Z,965.41
2023-03-06T07:04:03.933Z,965.49
2023-03-06T07:05:05.824Z,965.49
2023-03-06T07:06:03.174Z,965.41
2023-03-06T07:07:03.124Z,965.38
2023-03-06T07:08:03.116Z,965.49
2023-03-06T07:09:03.032Z,965.46
2023-03-06T07:10:03.078Z,965.38
2023-03-06T07:11:03.133Z,965.46
2023-03-06T07:12:03.007Z,965.48
2023-03-06T07:13:03.166Z,965.48
2023-03-06T07:14:03.175Z,965.51
2023-03-06T07:15:03.320Z,965.34
2023-03-06T07:16:03.425Z,965.46
2023-03-06T07:17:03.528Z,965.34
2023-03-06T07:18:03.460Z,965.40
2023-03-06T07:19:03.426Z,965.45
2023-03-06T07:20:03.418Z,965.42
2023-03-06T07:21:03.380Z,965.40
2023-03-06T07:22:03.437Z,965.37
2023-03-06T07:23:03.585Z,965.40
2023-03-06T07:24:03.568Z,965.42
2023-03-06T07:25:03.757Z,965.39
2023-03-06T07:26:03.665Z,965.48
2023-03-06T07:27:03.725Z,965.50
2023-03-06T07:28:03.728Z,965.50
2023-03-06T07:29:03.786Z,965.42
2023-03-06T07:30:03.590Z,965.39
2023-03-06T07:31:03.762Z,965.28
2023-03-06T07:32:03.753Z,965.42
2023-03-06T07:33:03.788Z,965.44
2023-03-06T07:34:05.360Z,965.36
2023-03-06T07:35:22.793Z,965.41
2023-03-06T07:36:03.113Z,965.39
2023-03-06T07:37:03.986Z,965.50
2023-03-06T07:38:02.985Z,965.38
2023-03-06T07:39:02.992Z,965.52
2023-03-06T07:40:03.014Z,965.47
2023-03-06T07:41:03.302Z,965.38
2023-03-06T07:42:03.337Z,965.55
2023-03-06T07:43:19.762Z,965.38
2023-03-06T07:44:03.379Z,965.54
2023-03-06T07:45:03.287Z,965.52
2023-03-06T07:46:03.389Z,965.54
2023-03-06T07:47:03.297Z,965.46
2023-03-06T07:48:06.502Z,965.40
2023-03-06T07:49:03.961Z,965.34
2023-03-06T07:50:03.897Z,965.37
2023-03-06T07:51:02.971Z,965.37
2023-03-06T07:52:03.073Z,965.34
2023-03-06T07:53:03.030Z,965.42
2023-03-06T07:54:03.023Z,965.47
2023-03-06T07:55:03.682Z,965.39
2023-03-06T07:56:03.903Z,965.36
2023-03-06T07:57:03.875Z,965.30
2023-03-06T07:58:02.964Z,965.24
2023-03-06T07:59:02.944Z,965.27
2023-03-06T08:00:03.907Z,965.21
2023-03-06T08:01:03.025Z,965.23
2023-03-06T08:02:03.069Z,965.43
2023-03-06T08:03:03.194Z,965.40
2023-03-06T08:04:03.295Z,965.28
2023-03-06T08:05:03.206Z,965.23
2023-03-06T08:06:03.219Z,965.31
2023-03-06T08:07:03.226Z,965.22
2023-03-06T08:08:03.192Z,965.36
2023-03-06T08:09:03.197Z,965.21
2023-03-06T08:10:03.227Z,965.29
2023-03-06T08:11:03.269Z,965.32
2023-03-06T08:12:03.414Z,965.26
2023-03-06T08:13:03.478Z,965.20
2023-03-06T08:14:03.403Z,965.28
2023-03-06T08:15:03.571Z,965.30
2023-03-06T08:16:03.594Z,965.27
2023-03-06T08:17:03.512Z,965.18
2023-03-06T08:18:03.520Z,965.21
2023-03-06T08:19:03.645Z,965.23
2023-03-06T08:20:03.745Z,965.25
2023-03-06T08:21:03.736Z,965.36
2023-03-06T08:22:03.802Z,965.36
2023-03-06T08:23:03.822Z,965.10
2023-03-06T08:24:03.846Z,965.21
2023-03-06T08:25:03.861Z,965.12
2023-03-06T08:26:03.889Z,965.26
2023-03-06T08:27:03.921Z,965.23
2023-03-06T08:28:03.846Z,965.28
2023-03-06T08:29:03.894Z,965.25
2023-03-06T08:30:02.989Z,965.19
2023-03-06T08:31:02.914Z,965.38
2023-03-06T08:32:03.080Z,965.16
2023-03-06T08:33:03.284Z,965.35
2023-03-06T08:34:03.218Z,965.18
2023-03-06T08:35:03.247Z,965.37
2023-03-06T08:36:03.292Z,965.31
2023-03-06T08:37:03.417Z,965.28
2023-03-06T08:38:03.319Z,965.30
2023-03-06T08:39:03.770Z,965.19
2023-03-06T08:40:03.959Z,965.30
2023-03-06T08:41:02.934Z,965.26
2023-03-06T08:42:02.997Z,965.07
2023-03-06T08:43:03.018Z,965.29
2023-03-06T08:44:03.334Z,965.31
2023-03-06T08:45:03.475Z,965.31
2023-03-06T08:46:03.763Z,965.45
2023-03-06T08:47:03.565Z,965.33
2023-03-06T08:48:03.648Z,965.33
2023-03-06T08:49:03.506Z,965.28
2023-03-06T08:50:03.449Z,965.45
2023-03-06T08:51:03.417Z,965.42
2023-03-06T08:52:03.443Z,965.39
2023-03-06T08:53:03.353Z,965.53
2023-03-06T08:54:03.489Z,965.44
2023-03-06T08:55:03.623Z,965.41
2023-03-06T08:56:03.574Z,965.41
2023-03-06T08:57:03.585Z,965.62
2023-03-06T08:58:03.564Z,965.47
2023-03-06T08:59:03.446Z,965.47
2023-03-06T09:00:03.592Z,965.52
2023-03-06T09:01:03.825Z,965.62
2023-03-06T09:02:03.761Z,965.65
2023-03-06T09:03:03.750Z,965.62
2023-03-06T09:04:03.701Z,965.71
2023-03-06T09:05:03.646Z,965.68
2023-03-06T09:06:03.722Z,965.63
2023-03-06T09:07:03.852Z,965.60
2023-03-06T09:08:03.796Z,965.74
2023-03-06T09:09:03.943Z,965.71
2023-03-06T09:10:03.893Z,965.65
2023-03-06T09:11:02.958Z,965.74
2023-03-06T09:12:03.039Z,965.77
2023-03-06T09:13:03.047Z,965.79
2023-03-06T09:14:03.067Z,965.71
2023-03-06T09:15:03.091Z,965.65
2023-03-06T09:16:03.122Z,965.74
2023-03-06T09:17:03.282Z,965.85
2023-03-06T09:18:03.503Z,965.91
2023-03-06T09:19:03.216Z,965.77
2023-03-06T09:20:03.321Z,965.99
2023-03-06T09:21:03.389Z,965.74
2023-03-06T09:22:03.288Z,965.85
2023-03-06T09:23:03.369Z,965.97
2023-03-06T09:24:03.413Z,965.88
2023-03-06T09:25:03.367Z,966.05
2023-03-06T09:26:03.336Z,965.97
2023-03-06T09:27:03.315Z,965.94
2023-03-06T09:28:12.404Z,966.03
2023-03-06T09:29:03.260Z,965.89
2023-03-06T09:30:03.339Z,965.86
2023-03-06T09:31:03.443Z,965.92
2023-03-06T09:32:03.457Z,965.97
2023-03-06T09:33:03.283Z,965.92
2023-03-06T09:34:03.349Z,966.05
2023-03-06T09:35:03.410Z,965.86
2023-03-06T09:36:03.583Z,965.86
2023-03-06T09:37:03.578Z,965.80
2023-03-06T09:38:03.468Z,965.83
2023-03-06T09:39:03.518Z,965.85
2023-03-06T09:40:03.518Z,965.83
2023-03-06T09:41:03.409Z,965.88
2023-03-06T09:42:03.297Z,965.96
2023-03-06T09:43:03.332Z,965.85
2023-03-06T09:44:03.326Z,965.79
2023-03-06T09:45:03.246Z,966.02
2023-03-06T09:46:03.392Z,965.87
2023-03-06T09:47:03.297Z,965.79
2023-03-06T09:48:03.211Z,965.81
2023-03-06T09:49:03.313Z,965.73
2023-03-06T09:50:03.243Z,965.81
2023-03-06T09:51:03.294Z,965.81
2023-03-06T09:52:03.179Z,965.84
2023-03-06T09:53:03.296Z,965.78
2023-03-06T09:54:03.286Z,965.78
2023-03-06T09:55:03.425Z,965.91
2023-03-06T09:56:03.356Z,965.77
2023-03-06T09:57:03.364Z,965.66
2023-03-06T09:58:07.409Z,965.82
2023-03-06T09:59:03.536Z,965.71
2023-03-06T10:00:05.012Z,965.77
2023-03-06T10:01:03.546Z,965.76
2023-03-06T10:02:03.717Z,965.65
2023-03-06T10:03:03.604Z,965.76
2023-03-06T10:04:03.488Z,965.62
2023-03-06T10:05:03.589Z,965.64
2023-03-06T10:06:03.405Z,965.75
2023-03-06T10:07:03.484Z,965.75
2023-03-06T10:08:03.578Z,965.75
2023-03-06T10:09:03.682Z,965.83
2023-03-06T10:10:03.657Z,965.75
2023-03-06T10:11:03.707Z,965.86
2023-03-06T10:12:03.636Z,965.72
2023-03-06T10:13:03.705Z,965.83
2023-03-06T10:14:03.689Z,965.75
2023-03-06T10:15:03.690Z,965.69
2023-03-06T10:16:03.655Z,965.74
2023-03-06T10:17:03.579Z,965.86
2023-03-06T10:18:03.790Z,965.91
2023-03-06T10:19:03.695Z,965.82
2023-03-06T10:20:03.853Z,965.85
2023-03-06T10:21:19.621Z,965.88
2023-03-06T10:22:03.863Z,965.93
2023-03-06T10:23:05.600Z,965.74
2023-03-06T10:24:02.947Z,965.85
2023-03-06T10:25:03.013Z,965.79
2023-03-06T10:26:03.180Z,965.77
2023-03-06T10:27:03.187Z,966.02
2023-03-06T10:28:03.296Z,966.04
2023-03-06T10:29:03.182Z,966.04
2023-03-06T10:30:04.482Z,965.96
2023-03-06T10:31:03.347Z,965.93
2023-03-06T10:32:03.302Z,966.07
2023-03-06T10:33:03.459Z,966.07
2023-03-06T10:34:03.434Z,966.01
2023-03-06T10:35:03.439Z,966.04
2023-03-06T10:36:03.541Z,965.96
2023-03-06T10:37:03.499Z,966.10
2023-03-06T10:38:03.849Z,966.10
2023-03-06T10:39:03.864Z,965.98
2023-03-06T10:40:04.009Z,966.04
2023-03-06T10:41:03.859Z,966.10
2023-03-06T10:42:03.010Z,966.04
2023-03-06T10:43:12.512Z,965.90
2023-03-06T10:44:02.960Z,966.13
2023-03-06T10:45:03.049Z,966.13
2023-03-06T10:46:03.145Z,966.07
2023-03-06T10:47:03.139Z,966.01
2023-03-06T10:48:03.065Z,965.96
2023-03-06T10:49:03.162Z,966.01
2023-03-06T10:50:03.049Z,966.04
2023-03-06T10:51:18.270Z,966.01
2023-03-06T10:52:03.119Z,966.01
2023-03-06T10:53:03.152Z,966.10
2023-03-06T10:54:03.005Z,966.01
2023-03-06T10:55:03.087Z,966.16
2023-03-06T10:56:03.193Z,966.24
2023-03-06T10:57:03.100Z,966.07
2023-03-06T10:58:03.625Z,966.07
2023-03-06T10:59:03.568Z,966.10
2023-03-06T11:00:03.785Z,966.19
2023-03-06T11:01:03.754Z,966.13
2023-03-06T11:02:03.859Z,966.08
2023-03-06T11:03:03.761Z,966.11
2023-03-06T11:04:03.658Z,966.02
2023-03-06T11:05:03.842Z,966.05
2023-03-06T11:06:03.884Z,966.14
2023-03-06T11:07:03.929Z,965.97
2023-03-06T11:08:03.895Z,966.16
2023-03-06T11:09:03.012Z,966.00
2023-03-06T11:10:02.964Z,966.02
2023-03-06T11:11:03.056Z,966.08
2023-03-06T11:12:02.922Z,965.99
2023-03-06T11:13:02.980Z,966.02
2023-03-06T11:14:02.913Z,965.99
2023-03-06T11:15:03.074Z,965.90
2023-03-06T11:16:03.308Z,965.90
2023-03-06T11:17:03.187Z,965.84
2023-03-06T11:18:03.207Z,965.89
2023-03-06T11:19:03.136Z,965.89
2023-03-06T11:20:03.281Z,965.75
2023-03-06T11:21:03.293Z,965.83
2023-03-06T11:22:03.380Z,965.91
2023-03-06T11:23:03.288Z,965.77
2023-03-06T11:24:03.314Z,965.77
2023-03-06T11:25:03.275Z,965.74
2023-03-06T11:26:03.435Z,965.65
2023-03-06T11:27:03.281Z,965.79
2023-03-06T11:28:03.321Z,965.73
2023-03-06T11:29:03.810Z,965.73
2023-03-06T11:30:03.673Z,965.73
2023-03-06T11:31:03.817Z,965.75
2023-03-06T11:32:03.763Z,965.81
2023-03-06T11:33:03.614Z,965.66
2023-03-06T11:34:03.454Z,965.77
2023-03-06T11:35:03.559Z,965.72
2023-03-06T11:36:04.649Z,965.80
2023-03-06T11:37:03.721Z,965.77
2023-03-06T11:38:03.670Z,965.71
2023-03-06T11:39:03.675Z,965.66
2023-03-06T11:40:03.683Z,965.77
2023-03-06T11:41:03.652Z,965.65
2023-03-06T11:42:03.481Z,965.68
2023-03-06T11:43:03.460Z,965.68
2023-03-06T11:44:03.473Z,965.54
2023-03-06T11:45:03.817Z,965.64
2023-03-06T11:46:03.679Z,965.64
2023-03-06T11:47:03.546Z,965.70
2023-03-06T11:48:03.528Z,965.81
2023-03-06T11:49:03.567Z,965.66
2023-03-06T11:50:03.603Z,965.75
2023-03-06T11:51:06.439Z,965.59
2023-03-06T11:52:03.868Z,965.69
2023-03-06T11:53:03.790Z,965.85
2023-03-06T11:54:03.900Z,965.77
2023-03-06T11:55:03.854Z,965.71
2023-03-06T11:56:03.848Z,965.77
2023-03-06T11:57:03.909Z,965.74
2023-03-06T11:58:02.997Z,965.85
2023-03-06T11:59:03.121Z,965.68
2023-03-06T12:00:03.170Z,965.85
2023-03-06T12:01:03.117Z,965.74
2023-03-06T12:02:03.242Z,965.88
2023-03-06T12:03:03.117Z,965.85
2023-03-06T12:04:03.234Z,965.77
2023-03-06T12:05:03.333Z,965.75
2023-03-06T12:06:03.123Z,965.80
2023-03-06T12:07:03.116Z,965.69
2023-03-06T12:08:03.069Z,965.80
2023-03-06T12:09:03.172Z,965.89
2023-03-06T12:11:03.049Z,965.78
2023-03-06T12:12:03.035Z,965.75
2023-03-06T12:13:03.249Z,965.86
2023-03-06T12:14:04.599Z,965.84
2023-03-06T12:15:03.093Z,965.81
2023-03-06T12:16:03.111Z,965.96
2023-03-06T12:17:03.122Z,965.96
2023-03-06T12:18:03.155Z,965.93
2023-03-06T12:19:03.127Z,965.96
2023-03-06T12:20:03.170Z,965.85
2023-03-06T12:21:03.192Z,965.82
2023-03-06T12:22:03.271Z,965.85
2023-03-06T12:23:16.048Z,965.94
2023-03-06T12:24:03.311Z,965.89
2023-03-06T12:25:03.194Z,965.94
2023-03-06T12:26:03.302Z,965.95
2023-03-06T12:27:03.489Z,965.95
2023-03-06T12:28:03.417Z,965.92
2023-03-06T12:29:03.348Z,965.84